sensor_id;sensor_type;location;lat;lon;timestamp;temperature;humidity
20158;DHT22;10239;56.820;24.416;2023-06-05T00:00:11;6.40;99.90
20158;DHT22;10239;56.820;24.416;2023-06-05T00:02:39;6.40;99.90
20158;DHT22;10239;56.820;24.416;2023-06-05T00:05:07;6.30;99.90
20158;DHT22;10239;56.820;24.416;2023-06-05T00:07:38;6.30;99.90
20158;DHT22;10239;56.820;24.416;2023-06-05T00:10:07;6.30;99.90
20158;DHT22;10239;56.820;24.416;2023-06-05T00:12:36;6.20;99.90
20158;DHT22;10239;56.820;24.416;2023-06-05T00:15:04;6.00;99.90
20158;DHT22;10239;56.820;24.416;2023-06-05T00:17:32;6.00;99.90
20158;DHT22;10239;56.820;24.416;2023-06-05T00:20:00;6.00;99.90
20158;DHT22;10239;56.820;24.416;2023-06-05T00:22:28;6.00;99.90
20158;DHT22;10239;56.820;24.416;2023-06-05T00:24:55;6.00;99.90
20158;DHT22;10239;56.820;24.416;2023-06-05T00:27:23;6.00;99.90
20158;DHT22;10239;56.820;24.416;2023-06-05T00:29:51;6.10;99.90
20158;DHT22;10239;56.820;24.416;2023-06-05T00:32:19;6.00;99.90
20158;DHT22;10239;56.820;24.416;2023-06-05T00:34:48;6.00;99.90
20158;DHT22;10239;56.820;24.416;2023-06-05T00:37:17;6.00;99.90
20158;DHT22;10239;56.820;24.416;2023-06-05T00:39:45;6.00;99.90
20158;DHT22;10239;56.820;24.416;2023-06-05T00:42:13;6.00;99.90
20158;DHT22;10239;56.820;24.416;2023-06-05T00:44:40;6.00;99.90
20158;DHT22;10239;56.820;24.416;2023-06-05T00:47:08;5.90;99.90
20158;DHT22;10239;56.820;24.416;2023-06-05T00:49:37;5.80;99.90
20158;DHT22;10239;56.820;24.416;2023-06-05T00:52:05;5.80;99.90
20158;DHT22;10239;56.820;24.416;2023-06-05T00:54:33;5.80;99.90
20158;DHT22;10239;56.820;24.416;2023-06-05T00:57:01;5.80;99.90
20158;DHT22;10239;56.820;24.416;2023-06-05T00:59:31;5.50;99.90
20158;DHT22;10239;56.820;24.416;2023-06-05T01:01:59;5.40;99.90
20158;DHT22;10239;56.820;24.416;2023-06-05T01:04:29;5.50;99.90
20158;DHT22;10239;56.820;24.416;2023-06-05T01:06:57;5.60;99.90
20158;DHT22;10239;56.820;24.416;2023-06-05T01:09:25;5.60;99.90
20158;DHT22;10239;56.820;24.416;2023-06-05T01:14:35;5.60;99.90
20158;DHT22;10239;56.820;24.416;2023-06-05T01:17:05;5.60;99.90
20158;DHT22;10239;56.820;24.416;2023-06-05T01:19:36;5.60;99.90
20158;DHT22;10239;56.820;24.416;2023-06-05T01:22:06;5.60;99.90
20158;DHT22;10239;56.820;24.416;2023-06-05T01:24:34;5.60;99.90
20158;DHT22;10239;56.820;24.416;2023-06-05T01:27:30;5.50;99.90
20158;DHT22;10239;56.820;24.416;2023-06-05T01:32:40;5.60;99.90
20158;DHT22;10239;56.820;24.416;2023-06-05T01:35:12;5.60;99.90
20158;DHT22;10239;56.820;24.416;2023-06-05T01:37:46;5.60;99.90
20158;DHT22;10239;56.820;24.416;2023-06-05T01:40:20;5.60;99.90
20158;DHT22;10239;56.820;24.416;2023-06-05T01:42:50;5.60;99.90
20158;DHT22;10239;56.820;24.416;2023-06-05T01:45:20;5.70;99.90
20158;DHT22;10239;56.820;24.416;2023-06-05T01:47:49;5.80;99.90
20158;DHT22;10239;56.820;24.416;2023-06-05T01:50:18;5.90;99.90
20158;DHT22;10239;56.820;24.416;2023-06-05T01:52:46;5.90;99.90
20158;DHT22;10239;56.820;24.416;2023-06-05T01:55:17;5.90;99.90
20158;DHT22;10239;56.820;24.416;2023-06-05T01:57:46;6.00;99.90
20158;DHT22;10239;56.820;24.416;2023-06-05T02:00:13;6.20;99.90
20158;DHT22;10239;56.820;24.416;2023-06-05T02:02:46;6.30;99.90
20158;DHT22;10239;56.820;24.416;2023-06-05T02:05:17;6.40;99.90
20158;DHT22;10239;56.820;24.416;2023-06-05T02:07:49;6.50;99.90
20158;DHT22;10239;56.820;24.416;2023-06-05T02:10:21;6.60;99.90
20158;DHT22;10239;56.820;24.416;2023-06-05T02:12:51;6.60;99.90
20158;DHT22;10239;56.820;24.416;2023-06-05T02:15:19;6.60;99.90
20158;DHT22;10239;56.820;24.416;2023-06-05T02:17:47;6.70;99.90
20158;DHT22;10239;56.820;24.416;2023-06-05T02:20:24;6.90;99.90
20158;DHT22;10239;56.820;24.416;2023-06-05T02:22:53;7.10;99.90
20158;DHT22;10239;56.820;24.416;2023-06-05T02:25:22;7.10;99.90
20158;DHT22;10239;56.820;24.416;2023-06-05T02:27:54;7.30;99.90
20158;DHT22;10239;56.820;24.416;2023-06-05T02:30:21;7.40;99.90
20158;DHT22;10239;56.820;24.416;2023-06-05T02:32:50;7.70;99.90
20158;DHT22;10239;56.820;24.416;2023-06-05T02:35:24;7.90;99.90
20158;DHT22;10239;56.820;24.416;2023-06-05T02:37:52;8.20;99.90
20158;DHT22;10239;56.820;24.416;2023-06-05T02:40:20;8.30;99.90
20158;DHT22;10239;56.820;24.416;2023-06-05T02:42:49;8.50;99.90
20158;DHT22;10239;56.820;24.416;2023-06-05T02:45:17;8.60;99.90
20158;DHT22;10239;56.820;24.416;2023-06-05T02:47:44;8.60;99.90
20158;DHT22;10239;56.820;24.416;2023-06-05T02:50:12;8.70;99.90
20158;DHT22;10239;56.820;24.416;2023-06-05T02:52:45;8.70;99.90
20158;DHT22;10239;56.820;24.416;2023-06-05T02:55:22;8.70;99.90
20158;DHT22;10239;56.820;24.416;2023-06-05T02:57:55;8.70;99.90
20158;DHT22;10239;56.820;24.416;2023-06-05T03:00:34;8.80;99.90
20158;DHT22;10239;56.820;24.416;2023-06-05T03:03:02;8.80;99.90
20158;DHT22;10239;56.820;24.416;2023-06-05T03:05:33;8.80;99.90
20158;DHT22;10239;56.820;24.416;2023-06-05T03:08:06;8.90;99.90
20158;DHT22;10239;56.820;24.416;2023-06-05T03:10:35;9.00;99.90
20158;DHT22;10239;56.820;24.416;2023-06-05T03:13:04;9.10;99.90
20158;DHT22;10239;56.820;24.416;2023-06-05T03:15:35;9.20;99.90
20158;DHT22;10239;56.820;24.416;2023-06-05T03:18:04;9.30;99.90
20158;DHT22;10239;56.820;24.416;2023-06-05T03:20:33;9.40;99.90
20158;DHT22;10239;56.820;24.416;2023-06-05T03:23:01;9.40;99.90
20158;DHT22;10239;56.820;24.416;2023-06-05T03:25:29;9.50;99.90
20158;DHT22;10239;56.820;24.416;2023-06-05T03:27:58;9.50;99.90
20158;DHT22;10239;56.820;24.416;2023-06-05T03:30:27;9.50;99.90
20158;DHT22;10239;56.820;24.416;2023-06-05T03:32:58;9.60;99.90
20158;DHT22;10239;56.820;24.416;2023-06-05T03:35:27;9.70;99.90
20158;DHT22;10239;56.820;24.416;2023-06-05T03:38:00;9.80;99.90
20158;DHT22;10239;56.820;24.416;2023-06-05T03:40:28;9.90;99.90
20158;DHT22;10239;56.820;24.416;2023-06-05T03:42:56;10.00;99.90
20158;DHT22;10239;56.820;24.416;2023-06-05T03:45:24;10.10;99.90
20158;DHT22;10239;56.820;24.416;2023-06-05T03:47:54;10.30;99.90
20158;DHT22;10239;56.820;24.416;2023-06-05T03:50:29;10.30;99.90
20158;DHT22;10239;56.820;24.416;2023-06-05T03:52:57;10.50;99.90
20158;DHT22;10239;56.820;24.416;2023-06-05T03:58:14;10.90;99.90
20158;DHT22;10239;56.820;24.416;2023-06-05T04:00:47;11.30;99.90
20158;DHT22;10239;56.820;24.416;2023-06-05T04:03:16;11.50;99.90
20158;DHT22;10239;56.820;24.416;2023-06-05T04:05:45;11.70;99.90
20158;DHT22;10239;56.820;24.416;2023-06-05T04:08:13;11.80;99.90
20158;DHT22;10239;56.820;24.416;2023-06-05T04:10:41;11.90;99.90
20158;DHT22;10239;56.820;24.416;2023-06-05T04:13:10;11.90;99.90
20158;DHT22;10239;56.820;24.416;2023-06-05T04:15:39;11.90;99.90
20158;DHT22;10239;56.820;24.416;2023-06-05T04:18:07;11.90;99.90
20158;DHT22;10239;56.820;24.416;2023-06-05T04:20:35;11.90;99.90
20158;DHT22;10239;56.820;24.416;2023-06-05T04:23:03;12.00;99.90
20158;DHT22;10239;56.820;24.416;2023-06-05T04:25:33;12.10;99.90
20158;DHT22;10239;56.820;24.416;2023-06-05T04:28:01;12.20;99.90
20158;DHT22;10239;56.820;24.416;2023-06-05T04:30:30;12.40;99.90
20158;DHT22;10239;56.820;24.416;2023-06-05T04:32:59;12.60;99.90
20158;DHT22;10239;56.820;24.416;2023-06-05T04:35:27;12.80;99.90
20158;DHT22;10239;56.820;24.416;2023-06-05T04:37:55;13.00;99.90
20158;DHT22;10239;56.820;24.416;2023-06-05T04:40:24;13.10;99.90
20158;DHT22;10239;56.820;24.416;2023-06-05T04:42:52;13.30;99.90
20158;DHT22;10239;56.820;24.416;2023-06-05T04:45:24;13.50;99.90
20158;DHT22;10239;56.820;24.416;2023-06-05T04:47:52;14.30;99.90
20158;DHT22;10239;56.820;24.416;2023-06-05T04:50:27;15.60;99.90
20158;DHT22;10239;56.820;24.416;2023-06-05T04:53:04;16.80;99.90
20158;DHT22;10239;56.820;24.416;2023-06-05T04:55:33;18.40;99.90
20158;DHT22;10239;56.820;24.416;2023-06-05T04:58:01;19.70;99.90
20158;DHT22;10239;56.820;24.416;2023-06-05T05:00:31;20.70;99.90
20158;DHT22;10239;56.820;24.416;2023-06-05T05:03:04;21.50;99.90
20158;DHT22;10239;56.820;24.416;2023-06-05T05:05:32;21.80;99.90
20158;DHT22;10239;56.820;24.416;2023-06-05T05:08:00;22.00;99.90
20158;DHT22;10239;56.820;24.416;2023-06-05T05:10:29;22.40;99.90
20158;DHT22;10239;56.820;24.416;2023-06-05T05:12:57;22.30;99.90
20158;DHT22;10239;56.820;24.416;2023-06-05T05:15:29;22.20;99.90
20158;DHT22;10239;56.820;24.416;2023-06-05T05:17:57;22.60;99.90
20158;DHT22;10239;56.820;24.416;2023-06-05T05:20:25;23.60;99.90
20158;DHT22;10239;56.820;24.416;2023-06-05T05:22:56;24.70;99.90
20158;DHT22;10239;56.820;24.416;2023-06-05T05:25:37;25.70;99.90
20158;DHT22;10239;56.820;24.416;2023-06-05T05:31:11;26.20;99.90
20158;DHT22;10239;56.820;24.416;2023-06-05T05:33:39;24.90;99.90
20158;DHT22;10239;56.820;24.416;2023-06-05T05:36:07;24.00;99.90
20158;DHT22;10239;56.820;24.416;2023-06-05T05:38:35;22.60;99.90
20158;DHT22;10239;56.820;24.416;2023-06-05T05:43:48;20.40;99.90
20158;DHT22;10239;56.820;24.416;2023-06-05T05:46:27;19.70;99.90
20158;DHT22;10239;56.820;24.416;2023-06-05T05:49:20;19.80;99.90
20158;DHT22;10239;56.820;24.416;2023-06-05T05:52:09;21.40;99.90
20158;DHT22;10239;56.820;24.416;2023-06-05T05:54:40;22.50;99.90
20158;DHT22;10239;56.820;24.416;2023-06-05T05:57:08;22.10;99.90
20158;DHT22;10239;56.820;24.416;2023-06-05T05:59:35;21.40;99.90
20158;DHT22;10239;56.820;24.416;2023-06-05T06:02:03;21.00;99.90
20158;DHT22;10239;56.820;24.416;2023-06-05T06:04:38;21.60;99.90
20158;DHT22;10239;56.820;24.416;2023-06-05T06:07:06;22.40;99.90
20158;DHT22;10239;56.820;24.416;2023-06-05T06:09:33;22.30;99.90
20158;DHT22;10239;56.820;24.416;2023-06-05T06:12:01;21.90;99.90
20158;DHT22;10239;56.820;24.416;2023-06-05T06:14:36;21.20;99.90
20158;DHT22;10239;56.820;24.416;2023-06-05T06:31:07;18.20;99.90
20158;DHT22;10239;56.820;24.416;2023-06-05T06:33:34;18.10;99.90
20158;DHT22;10239;56.820;24.416;2023-06-05T06:36:03;18.20;99.90
20158;DHT22;10239;56.820;24.416;2023-06-05T06:38:31;18.80;99.90
20158;DHT22;10239;56.820;24.416;2023-06-05T06:40:59;19.90;99.90
20158;DHT22;10239;56.820;24.416;2023-06-05T06:43:27;20.60;99.90
20158;DHT22;10239;56.820;24.416;2023-06-05T06:46:01;20.80;99.90
20158;DHT22;10239;56.820;24.416;2023-06-05T06:48:29;22.30;99.90
20158;DHT22;10239;56.820;24.416;2023-06-05T06:50:57;24.10;99.90
20158;DHT22;10239;56.820;24.416;2023-06-05T06:53:25;25.60;99.90
20158;DHT22;10239;56.820;24.416;2023-06-05T06:55:52;26.50;99.90
20158;DHT22;10239;56.820;24.416;2023-06-05T06:58:20;27.20;94.90
20158;DHT22;10239;56.820;24.416;2023-06-05T07:00:47;27.80;96.50
20158;DHT22;10239;56.820;24.416;2023-06-05T07:03:16;28.10;94.30
20158;DHT22;10239;56.820;24.416;2023-06-05T07:05:45;28.70;90.60
20158;DHT22;10239;56.820;24.416;2023-06-05T07:08:12;28.90;89.60
20158;DHT22;10239;56.820;24.416;2023-06-05T07:10:40;27.80;87.80
20158;DHT22;10239;56.820;24.416;2023-06-05T07:13:09;26.30;87.70
20158;DHT22;10239;56.820;24.416;2023-06-05T07:15:37;25.60;91.30
20158;DHT22;10239;56.820;24.416;2023-06-05T07:18:04;26.90;91.30
20158;DHT22;10239;56.820;24.416;2023-06-05T07:20:32;28.10;86.30
20158;DHT22;10239;56.820;24.416;2023-06-05T07:23:01;29.20;88.90
20158;DHT22;10239;56.820;24.416;2023-06-05T07:25:28;29.90;79.50
20158;DHT22;10239;56.820;24.416;2023-06-05T07:27:56;29.30;80.60
20158;DHT22;10239;56.820;24.416;2023-06-05T07:30:27;27.40;81.50
20158;DHT22;10239;56.820;24.416;2023-06-05T07:32:55;26.30;83.20
20158;DHT22;10239;56.820;24.416;2023-06-05T07:35:23;24.80;83.90
20158;DHT22;10239;56.820;24.416;2023-06-05T07:37:51;23.70;87.70
20158;DHT22;10239;56.820;24.416;2023-06-05T07:40:20;23.00;90.80
20158;DHT22;10239;56.820;24.416;2023-06-05T07:42:48;22.90;90.20
20158;DHT22;10239;56.820;24.416;2023-06-05T07:45:16;22.70;89.10
20158;DHT22;10239;56.820;24.416;2023-06-05T07:47:43;24.00;91.30
20158;DHT22;10239;56.820;24.416;2023-06-05T07:50:11;25.60;90.10
20158;DHT22;10239;56.820;24.416;2023-06-05T07:52:39;27.00;84.90
20158;DHT22;10239;56.820;24.416;2023-06-05T07:55:06;27.40;85.80
20158;DHT22;10239;56.820;24.416;2023-06-05T07:57:35;27.40;82.40
20158;DHT22;10239;56.820;24.416;2023-06-05T08:00:04;27.90;81.40
20158;DHT22;10239;56.820;24.416;2023-06-05T08:02:41;28.50;82.70
20158;DHT22;10239;56.820;24.416;2023-06-05T08:05:11;28.80;80.40
20158;DHT22;10239;56.820;24.416;2023-06-05T08:07:39;29.10;79.60
20158;DHT22;10239;56.820;24.416;2023-06-05T08:10:08;29.30;77.10
20158;DHT22;10239;56.820;24.416;2023-06-05T08:12:36;29.10;76.50
20158;DHT22;10239;56.820;24.416;2023-06-05T08:15:04;29.00;74.80
20158;DHT22;10239;56.820;24.416;2023-06-05T08:17:34;28.90;75.00
20158;DHT22;10239;56.820;24.416;2023-06-05T08:20:02;29.00;75.70
20158;DHT22;10239;56.820;24.416;2023-06-05T08:22:32;29.30;78.50
20158;DHT22;10239;56.820;24.416;2023-06-05T08:25:00;29.50;74.40
20158;DHT22;10239;56.820;24.416;2023-06-05T08:27:28;29.70;76.10
20158;DHT22;10239;56.820;24.416;2023-06-05T08:29:55;29.40;73.30
20158;DHT22;10239;56.820;24.416;2023-06-05T08:32:24;29.50;73.10
20158;DHT22;10239;56.820;24.416;2023-06-05T08:34:52;29.40;71.40
20158;DHT22;10239;56.820;24.416;2023-06-05T08:37:20;29.30;74.30
20158;DHT22;10239;56.820;24.416;2023-06-05T08:39:47;28.90;73.80
20158;DHT22;10239;56.820;24.416;2023-06-05T08:42:16;28.90;73.30
20158;DHT22;10239;56.820;24.416;2023-06-05T08:44:48;29.20;74.50
20158;DHT22;10239;56.820;24.416;2023-06-05T08:47:30;29.70;76.30
20158;DHT22;10239;56.820;24.416;2023-06-05T08:50:02;29.70;72.20
20158;DHT22;10239;56.820;24.416;2023-06-05T08:52:38;29.60;70.00
20158;DHT22;10239;56.820;24.416;2023-06-05T08:55:06;30.10;72.40
20158;DHT22;10239;56.820;24.416;2023-06-05T08:57:35;30.10;68.00
20158;DHT22;10239;56.820;24.416;2023-06-05T09:00:06;29.80;68.30
20158;DHT22;10239;56.820;24.416;2023-06-05T09:02:42;29.40;72.30
20158;DHT22;10239;56.820;24.416;2023-06-05T09:05:11;29.60;70.80
20158;DHT22;10239;56.820;24.416;2023-06-05T09:07:49;29.60;72.20
20158;DHT22;10239;56.820;24.416;2023-06-05T09:10:28;29.60;71.00
20158;DHT22;10239;56.820;24.416;2023-06-05T09:13:19;29.80;72.10
20158;DHT22;10239;56.820;24.416;2023-06-05T09:16:12;30.10;68.90
20158;DHT22;10239;56.820;24.416;2023-06-05T09:40:10;29.70;68.80
20158;DHT22;10239;56.820;24.416;2023-06-05T09:42:42;28.70;66.80
20158;DHT22;10239;56.820;24.416;2023-06-05T09:45:10;28.50;67.50
20158;DHT22;10239;56.820;24.416;2023-06-05T09:47:38;28.50;71.70
20158;DHT22;10239;56.820;24.416;2023-06-05T09:50:23;28.90;68.40
20158;DHT22;10239;56.820;24.416;2023-06-05T09:52:52;29.30;70.40
20158;DHT22;10239;56.820;24.416;2023-06-05T09:55:23;29.00;70.40
20158;DHT22;10239;56.820;24.416;2023-06-05T09:58:12;28.80;68.70
20158;DHT22;10239;56.820;24.416;2023-06-05T10:01:01;29.10;71.20
20158;DHT22;10239;56.820;24.416;2023-06-05T10:03:34;29.30;68.40
20158;DHT22;10239;56.820;24.416;2023-06-05T10:06:05;28.80;67.90
20158;DHT22;10239;56.820;24.416;2023-06-05T10:08:38;28.80;71.20
20158;DHT22;10239;56.820;24.416;2023-06-05T10:11:06;28.80;70.00
20158;DHT22;10239;56.820;24.416;2023-06-05T10:13:35;28.90;70.00
20158;DHT22;10239;56.820;24.416;2023-06-05T10:16:03;28.90;67.30
20158;DHT22;10239;56.820;24.416;2023-06-05T10:18:49;28.70;70.10
20158;DHT22;10239;56.820;24.416;2023-06-05T10:21:17;28.60;69.60
20158;DHT22;10239;56.820;24.416;2023-06-05T10:23:58;28.70;73.00
20158;DHT22;10239;56.820;24.416;2023-06-05T10:32:29;28.40;70.30
20158;DHT22;10239;56.820;24.416;2023-06-05T10:40:58;28.60;65.80
20158;DHT22;10239;56.820;24.416;2023-06-05T10:45:55;27.90;67.20
20158;DHT22;10239;56.820;24.416;2023-06-05T10:51:50;27.40;72.20
20158;DHT22;10239;56.820;24.416;2023-06-05T10:56:52;27.60;66.90
20158;DHT22;10239;56.820;24.416;2023-06-05T10:59:22;27.50;68.60
20158;DHT22;10239;56.820;24.416;2023-06-05T11:07:17;27.50;67.70
20158;DHT22;10239;56.820;24.416;2023-06-05T11:10:09;27.50;68.30
20158;DHT22;10239;56.820;24.416;2023-06-05T11:18:33;26.40;67.70
20158;DHT22;10239;56.820;24.416;2023-06-05T11:21:02;26.20;70.50
20158;DHT22;10239;56.820;24.416;2023-06-05T11:23:30;26.30;71.00
20158;DHT22;10239;56.820;24.416;2023-06-05T11:29:13;26.10;68.90
20158;DHT22;10239;56.820;24.416;2023-06-05T11:31:44;25.60;70.40
20158;DHT22;10239;56.820;24.416;2023-06-05T11:34:19;25.30;69.90
20158;DHT22;10239;56.820;24.416;2023-06-05T11:36:48;25.10;75.80
20158;DHT22;10239;56.820;24.416;2023-06-05T11:39:18;25.20;72.70
20158;DHT22;10239;56.820;24.416;2023-06-05T11:41:56;25.00;73.60
20158;DHT22;10239;56.820;24.416;2023-06-05T11:44:33;24.90;73.90
20158;DHT22;10239;56.820;24.416;2023-06-05T11:47:06;24.80;73.30
20158;DHT22;10239;56.820;24.416;2023-06-05T11:49:38;24.60;74.20
20158;DHT22;10239;56.820;24.416;2023-06-05T11:52:18;24.50;70.40
20158;DHT22;10239;56.820;24.416;2023-06-05T11:54:49;24.50;72.00
20158;DHT22;10239;56.820;24.416;2023-06-05T11:57:43;24.40;73.50
20158;DHT22;10239;56.820;24.416;2023-06-05T12:00:23;24.30;72.80
20158;DHT22;10239;56.820;24.416;2023-06-05T12:02:52;23.90;71.80
20158;DHT22;10239;56.820;24.416;2023-06-05T12:05:22;23.90;71.10
20158;DHT22;10239;56.820;24.416;2023-06-05T12:07:50;23.60;70.40
20158;DHT22;10239;56.820;24.416;2023-06-05T12:10:18;23.40;73.40
20158;DHT22;10239;56.820;24.416;2023-06-05T12:12:51;23.20;75.10
20158;DHT22;10239;56.820;24.416;2023-06-05T12:15:20;23.30;76.30
20158;DHT22;10239;56.820;24.416;2023-06-05T12:17:55;23.40;76.10
20158;DHT22;10239;56.820;24.416;2023-06-05T12:20:23;23.40;71.70
20158;DHT22;10239;56.820;24.416;2023-06-05T12:22:51;23.70;77.10
20158;DHT22;10239;56.820;24.416;2023-06-05T12:25:21;23.90;73.40
20158;DHT22;10239;56.820;24.416;2023-06-05T12:27:49;24.10;73.10
20158;DHT22;10239;56.820;24.416;2023-06-05T12:30:17;23.90;72.30
20158;DHT22;10239;56.820;24.416;2023-06-05T12:32:45;23.90;74.00
20158;DHT22;10239;56.820;24.416;2023-06-05T12:35:20;23.70;72.60
20158;DHT22;10239;56.820;24.416;2023-06-05T12:37:49;23.30;74.20
20158;DHT22;10239;56.820;24.416;2023-06-05T12:40:18;23.40;76.70
20158;DHT22;10239;56.820;24.416;2023-06-05T12:43:22;23.70;73.50
20158;DHT22;10239;56.820;24.416;2023-06-05T12:46:02;23.90;73.90
20158;DHT22;10239;56.820;24.416;2023-06-05T12:48:30;23.80;75.80
20158;DHT22;10239;56.820;24.416;2023-06-05T12:50:57;23.70;73.80
20158;DHT22;10239;56.820;24.416;2023-06-05T12:53:25;23.50;76.20
20158;DHT22;10239;56.820;24.416;2023-06-05T12:55:53;23.50;76.70
20158;DHT22;10239;56.820;24.416;2023-06-05T12:58:21;23.40;74.80
20158;DHT22;10239;56.820;24.416;2023-06-05T13:00:49;23.40;77.70
20158;DHT22;10239;56.820;24.416;2023-06-05T13:03:17;23.30;75.60
20158;DHT22;10239;56.820;24.416;2023-06-05T13:05:45;23.30;76.30
20158;DHT22;10239;56.820;24.416;2023-06-05T13:08:13;23.40;74.50
20158;DHT22;10239;56.820;24.416;2023-06-05T13:10:41;23.50;77.40
20158;DHT22;10239;56.820;24.416;2023-06-05T13:13:09;23.50;74.10
20158;DHT22;10239;56.820;24.416;2023-06-05T13:15:36;23.40;75.20
20158;DHT22;10239;56.820;24.416;2023-06-05T13:18:06;23.20;74.80
20158;DHT22;10239;56.820;24.416;2023-06-05T13:20:35;22.90;75.30
20158;DHT22;10239;56.820;24.416;2023-06-05T13:23:02;22.90;77.10
20158;DHT22;10239;56.820;24.416;2023-06-05T13:25:30;22.80;79.50
20158;DHT22;10239;56.820;24.416;2023-06-05T13:27:58;22.80;78.10
20158;DHT22;10239;56.820;24.416;2023-06-05T13:30:25;22.90;77.40
20158;DHT22;10239;56.820;24.416;2023-06-05T13:32:54;22.90;75.70
20158;DHT22;10239;56.820;24.416;2023-06-05T13:35:22;22.90;79.00
20158;DHT22;10239;56.820;24.416;2023-06-05T13:37:50;22.90;78.10
20158;DHT22;10239;56.820;24.416;2023-06-05T13:40:18;22.80;78.30
20158;DHT22;10239;56.820;24.416;2023-06-05T13:42:46;22.80;76.70
20158;DHT22;10239;56.820;24.416;2023-06-05T13:45:15;22.70;77.70
20158;DHT22;10239;56.820;24.416;2023-06-05T13:47:43;22.70;77.80
20158;DHT22;10239;56.820;24.416;2023-06-05T13:50:10;22.70;75.40
20158;DHT22;10239;56.820;24.416;2023-06-05T13:52:38;22.60;76.90
20158;DHT22;10239;56.820;24.416;2023-06-05T13:55:06;22.50;80.00
20158;DHT22;10239;56.820;24.416;2023-06-05T13:57:34;22.50;76.40
20158;DHT22;10239;56.820;24.416;2023-06-05T14:00:03;22.60;77.10
20158;DHT22;10239;56.820;24.416;2023-06-05T14:02:32;22.60;76.30
20158;DHT22;10239;56.820;24.416;2023-06-05T14:05:00;22.70;75.60
20158;DHT22;10239;56.820;24.416;2023-06-05T14:07:28;22.60;74.20
20158;DHT22;10239;56.820;24.416;2023-06-05T14:10:14;22.60;77.80
20158;DHT22;10239;56.820;24.416;2023-06-05T14:12:42;22.70;77.40
20158;DHT22;10239;56.820;24.416;2023-06-05T14:15:10;22.90;78.50
20158;DHT22;10239;56.820;24.416;2023-06-05T14:17:37;23.00;77.50
20158;DHT22;10239;56.820;24.416;2023-06-05T14:20:06;22.90;76.50
20158;DHT22;10239;56.820;24.416;2023-06-05T14:22:35;23.20;79.80
20158;DHT22;10239;56.820;24.416;2023-06-05T14:25:03;23.20;77.30
20158;DHT22;10239;56.820;24.416;2023-06-05T14:27:32;23.10;76.10
20158;DHT22;10239;56.820;24.416;2023-06-05T14:30:00;23.10;77.20
20158;DHT22;10239;56.820;24.416;2023-06-05T14:32:27;22.90;76.30
20158;DHT22;10239;56.820;24.416;2023-06-05T14:34:58;22.80;75.30
20158;DHT22;10239;56.820;24.416;2023-06-05T14:37:25;22.70;74.70
20158;DHT22;10239;56.820;24.416;2023-06-05T14:39:53;22.60;75.20
20158;DHT22;10239;56.820;24.416;2023-06-05T14:42:22;22.60;77.20
20158;DHT22;10239;56.820;24.416;2023-06-05T14:44:50;22.70;78.50
20158;DHT22;10239;56.820;24.416;2023-06-05T14:47:18;22.80;77.30
20158;DHT22;10239;56.820;24.416;2023-06-05T14:49:46;22.70;76.60
20158;DHT22;10239;56.820;24.416;2023-06-05T14:52:13;22.70;75.50
20158;DHT22;10239;56.820;24.416;2023-06-05T14:54:41;22.50;75.10
20158;DHT22;10239;56.820;24.416;2023-06-05T14:57:19;22.40;77.00
20158;DHT22;10239;56.820;24.416;2023-06-05T14:59:47;22.30;78.80
20158;DHT22;10239;56.820;24.416;2023-06-05T15:02:15;22.20;81.00
20158;DHT22;10239;56.820;24.416;2023-06-05T15:04:42;22.20;79.80
20158;DHT22;10239;56.820;24.416;2023-06-05T15:07:10;22.10;79.10
20158;DHT22;10239;56.820;24.416;2023-06-05T15:09:38;22.10;80.30
20158;DHT22;10239;56.820;24.416;2023-06-05T15:12:06;22.20;81.40
20158;DHT22;10239;56.820;24.416;2023-06-05T15:14:37;22.30;82.40
20158;DHT22;10239;56.820;24.416;2023-06-05T15:17:05;22.30;78.60
20158;DHT22;10239;56.820;24.416;2023-06-05T15:19:34;22.10;81.00
20158;DHT22;10239;56.820;24.416;2023-06-05T15:22:02;22.00;82.90
20158;DHT22;10239;56.820;24.416;2023-06-05T15:24:30;22.00;79.70
20158;DHT22;10239;56.820;24.416;2023-06-05T15:26:57;21.80;82.40
20158;DHT22;10239;56.820;24.416;2023-06-05T15:29:25;22.10;81.50
20158;DHT22;10239;56.820;24.416;2023-06-05T15:31:53;22.10;82.90
20158;DHT22;10239;56.820;24.416;2023-06-05T15:34:34;22.00;83.00
20158;DHT22;10239;56.820;24.416;2023-06-05T15:37:07;22.00;81.30
20158;DHT22;10239;56.820;24.416;2023-06-05T15:39:35;21.90;82.00
20158;DHT22;10239;56.820;24.416;2023-06-05T15:42:03;21.90;83.20
20158;DHT22;10239;56.820;24.416;2023-06-05T15:44:32;21.80;82.20
20158;DHT22;10239;56.820;24.416;2023-06-05T15:47:00;21.80;82.20
20158;DHT22;10239;56.820;24.416;2023-06-05T15:49:28;21.70;84.60
20158;DHT22;10239;56.820;24.416;2023-06-05T15:51:56;21.60;83.30
20158;DHT22;10239;56.820;24.416;2023-06-05T15:54:25;21.60;83.80
20158;DHT22;10239;56.820;24.416;2023-06-05T15:57:06;21.50;83.60
20158;DHT22;10239;56.820;24.416;2023-06-05T15:59:35;21.50;83.90
20158;DHT22;10239;56.820;24.416;2023-06-05T16:02:02;21.40;84.90
20158;DHT22;10239;56.820;24.416;2023-06-05T16:04:30;21.30;85.20
20158;DHT22;10239;56.820;24.416;2023-06-05T16:07:00;21.30;85.30
20158;DHT22;10239;56.820;24.416;2023-06-05T16:09:28;21.20;86.20
20158;DHT22;10239;56.820;24.416;2023-06-05T16:11:56;21.20;85.60
20158;DHT22;10239;56.820;24.416;2023-06-05T16:14:24;21.10;85.50
20158;DHT22;10239;56.820;24.416;2023-06-05T16:16:52;21.00;85.50
20158;DHT22;10239;56.820;24.416;2023-06-05T16:19:20;21.00;84.90
20158;DHT22;10239;56.820;24.416;2023-06-05T16:21:48;20.90;85.30
20158;DHT22;10239;56.820;24.416;2023-06-05T16:24:15;20.70;85.70
20158;DHT22;10239;56.820;24.416;2023-06-05T16:26:43;20.80;86.00
20158;DHT22;10239;56.820;24.416;2023-06-05T16:29:14;20.70;85.80
20158;DHT22;10239;56.820;24.416;2023-06-05T16:31:42;20.70;86.30
20158;DHT22;10239;56.820;24.416;2023-06-05T16:34:11;20.70;88.50
20158;DHT22;10239;56.820;24.416;2023-06-05T16:36:39;20.70;87.50
20158;DHT22;10239;56.820;24.416;2023-06-05T16:39:07;20.60;86.40
20158;DHT22;10239;56.820;24.416;2023-06-05T16:41:34;20.60;89.10
20158;DHT22;10239;56.820;24.416;2023-06-05T16:44:03;20.60;86.20
20158;DHT22;10239;56.820;24.416;2023-06-05T16:46:30;20.60;87.00
20158;DHT22;10239;56.820;24.416;2023-06-05T16:48:58;20.60;88.40
20158;DHT22;10239;56.820;24.416;2023-06-05T16:51:26;20.50;88.80
20158;DHT22;10239;56.820;24.416;2023-06-05T16:53:54;20.40;88.90
20158;DHT22;10239;56.820;24.416;2023-06-05T16:56:22;20.30;88.60
20158;DHT22;10239;56.820;24.416;2023-06-05T16:58:49;20.30;87.90
20158;DHT22;10239;56.820;24.416;2023-06-05T17:01:19;20.30;89.10